sensor_id;sensor_type;location;lat;lon;timestamp;pressure;altitude;pressure_sealevel;temperature;humidity
44675;BME280;30388;52.038;-1.478;2023-05-08T00:00:15;66106.55;;;12.97;100.00
44675;BME280;30388;52.038;-1.478;2023-05-08T00:02:42;66109.78;;;13.01;100.00
44675;BME280;30388;52.038;-1.478;2023-05-08T00:05:09;66127.50;;;13.01;100.00
44675;BME280;30388;52.038;-1.478;2023-05-08T00:07:37;66127.53;;;13.24;100.00
44675;BME280;30388;52.038;-1.478;2023-05-08T00:10:06;66110.56;;;13.24;100.00
44675;BME280;30388;52.038;-1.478;2023-05-08T00:12:34;66123.41;;;12.96;100.00
44675;BME280;30388;52.038;-1.478;2023-05-08T00:15:04;66141.74;;;13.63;100.00
44675;BME280;30388;52.038;-1.478;2023-05-08T00:17:32;66105.99;;;12.73;100.00
44675;BME280;30388;52.038;-1.478;2023-05-08T00:20:00;66115.24;;;13.30;100.00
44675;BME280;30388;52.038;-1.478;2023-05-08T00:22:27;66118.01;;;13.11;100.00
44675;BME280;30388;52.038;-1.478;2023-05-08T00:24:54;66103.42;;;12.92;100.00
44675;BME280;30388;52.038;-1.478;2023-05-08T00:27:22;66101.85;;;13.12;100.00
44675;BME280;30388;52.038;-1.478;2023-05-08T00:29:49;66059.24;;;12.37;100.00
44675;BME280;30388;52.038;-1.478;2023-05-08T00:32:16;66086.76;;;12.94;100.00
44675;BME280;30388;52.038;-1.478;2023-05-08T00:34:43;66096.87;;;13.07;100.00
44675;BME280;30388;52.038;-1.478;2023-05-08T00:37:12;66062.91;;;12.63;100.00
44675;BME280;30388;52.038;-1.478;2023-05-08T00:39:40;66052.45;;;12.28;100.00
44675;BME280;30388;52.038;-1.478;2023-05-08T00:42:08;66065.15;;;12.67;100.00
44675;BME280;30388;52.038;-1.478;2023-05-08T00:44:36;66127.32;;;13.44;100.00
44675;BME280;30388;52.038;-1.478;2023-05-08T00:47:04;66021.90;;;12.12;100.00
44675;BME280;30388;52.038;-1.478;2023-05-08T00:49:32;66024.95;;;12.16;100.00
44675;BME280;30388;52.038;-1.478;2023-05-08T00:52:00;66027.83;;;12.20;100.00
44675;BME280;30388;52.038;-1.478;2023-05-08T00:54:29;66012.89;;;12.28;100.00
44675;BME280;30388;52.038;-1.478;2023-05-08T00:56:59;65997.79;;;12.30;100.00
44675;BME280;30388;52.038;-1.478;2023-05-08T00:59:26;65979.61;;;12.08;100.00
44675;BME280;30388;52.038;-1.478;2023-05-08T01:01:54;66010.42;;;12.46;100.00
44675;BME280;30388;52.038;-1.478;2023-05-08T01:04:24;66009.39;;;11.96;100.00
44675;BME280;30388;52.038;-1.478;2023-05-08T01:06:52;66002.79;;;12.15;100.00
44675;BME280;30388;52.038;-1.478;2023-05-08T01:09:21;66057.20;;;12.57;100.00
44675;BME280;30388;52.038;-1.478;2023-05-08T01:11:59;66077.04;;;12.82;100.00
44675;BME280;30388;52.038;-1.478;2023-05-08T01:14:44;66081.10;;;12.87;100.00
44675;BME280;30388;52.038;-1.478;2023-05-08T01:17:18;66042.08;;;12.37;100.00
44675;BME280;30388;52.038;-1.478;2023-05-08T01:20:02;66031.02;;;12.23;100.00
44675;BME280;30388;52.038;-1.478;2023-05-08T01:22:48;66055.27;;;12.54;100.00
44675;BME280;30388;52.038;-1.478;2023-05-08T01:25:42;66053.89;;;12.53;100.00
44675;BME280;30388;52.038;-1.478;2023-05-08T01:28:29;66025.57;;;12.65;100.00
44675;BME280;30388;52.038;-1.478;2023-05-08T01:31:11;66022.92;;;12.13;100.00
44675;BME280;30388;52.038;-1.478;2023-05-08T01:33:48;66019.39;;;12.09;100.00
44675;BME280;30388;52.038;-1.478;2023-05-08T01:36:28;66014.84;;;12.03;100.00
44675;BME280;30388;52.038;-1.478;2023-05-08T01:39:08;65993.19;;;12.25;100.00
44675;BME280;30388;52.038;-1.478;2023-05-08T01:41:45;65974.22;;;11.51;100.00
44675;BME280;30388;52.038;-1.478;2023-05-08T01:44:20;65974.99;;;12.02;100.00
44675;BME280;30388;52.038;-1.478;2023-05-08T01:46:49;65992.61;;;12.24;100.00
44675;BME280;30388;52.038;-1.478;2023-05-08T01:49:24;66007.85;;;12.43;100.00
44675;BME280;30388;52.038;-1.478;2023-05-08T01:52:00;66050.86;;;12.48;100.00
44675;BME280;30388;52.038;-1.478;2023-05-08T01:54:35;66033.66;;;12.27;100.00
44675;BME280;30388;52.038;-1.478;2023-05-08T01:57:08;66023.80;;;12.41;100.00
44675;BME280;30388;52.038;-1.478;2023-05-08T01:59:37;66001.03;;;11.85;100.00
44675;BME280;30388;52.038;-1.478;2023-05-08T02:02:09;65984.67;;;11.91;100.00
44675;BME280;30388;52.038;-1.478;2023-05-08T02:04:38;65966.00;;;11.90;100.00
44675;BME280;30388;52.038;-1.478;2023-05-08T02:07:06;65971.18;;;11.48;100.00
44675;BME280;30388;52.038;-1.478;2023-05-08T02:09:34;65954.23;;;11.75;100.00
44675;BME280;30388;52.038;-1.478;2023-05-08T02:12:03;66028.55;;;12.47;100.00
44675;BME280;30388;52.038;-1.478;2023-05-08T02:14:32;65962.32;;;11.86;100.00
44675;BME280;30388;52.038;-1.478;2023-05-08T02:17:04;65978.10;;;12.05;100.00
44675;BME280;30388;52.038;-1.478;2023-05-08T02:19:33;65981.67;;;11.88;100.00
44675;BME280;30388;52.038;-1.478;2023-05-08T02:22:02;65968.03;;;11.70;100.00
44675;BME280;30388;52.038;-1.478;2023-05-08T02:24:30;65985.37;;;11.93;100.00
44675;BME280;30388;52.038;-1.478;2023-05-08T02:26:58;65966.29;;;12.13;100.00
44675;BME280;30388;52.038;-1.478;2023-05-08T02:29:26;65960.71;;;11.61;100.00
44675;BME280;30388;52.038;-1.478;2023-05-08T02:31:54;65958.16;;;11.80;100.00
44675;BME280;30388;52.038;-1.478;2023-05-08T02:34:24;65959.73;;;11.83;100.00
44675;BME280;30388;52.038;-1.478;2023-05-08T02:36:53;66006.58;;;12.18;100.00
44675;BME280;30388;52.038;-1.478;2023-05-08T02:39:25;65997.15;;;12.29;100.00
44675;BME280;30388;52.038;-1.478;2023-05-08T02:41:52;65986.26;;;11.93;100.00
44675;BME280;30388;52.038;-1.478;2023-05-08T02:44:19;65980.82;;;11.87;100.00
44675;BME280;30388;52.038;-1.478;2023-05-08T02:46:52;66000.38;;;12.33;100.00
44675;BME280;30388;52.038;-1.478;2023-05-08T02:49:29;66005.12;;;12.40;100.00
44675;BME280;30388;52.038;-1.478;2023-05-08T02:52:03;66013.56;;;12.28;100.00
44675;BME280;30388;52.038;-1.478;2023-05-08T02:54:37;66029.02;;;12.21;100.00
44675;BME280;30388;52.038;-1.478;2023-05-08T02:57:13;66044.68;;;12.41;100.00
44675;BME280;30388;52.038;-1.478;2023-05-08T02:59:45;66036.12;;;12.30;100.00
44675;BME280;30388;52.038;-1.478;2023-05-08T03:02:24;66121.93;;;13.38;100.00
44675;BME280;30388;52.038;-1.478;2023-05-08T03:04:58;66094.96;;;13.31;100.00
44675;BME280;30388;52.038;-1.478;2023-05-08T03:07:29;66099.75;;;13.59;100.00
44675;BME280;30388;52.038;-1.478;2023-05-08T03:10:01;66091.85;;;13.27;100.00
44675;BME280;30388;52.038;-1.478;2023-05-08T03:12:32;66088.62;;;12.96;100.00
44675;BME280;30388;52.038;-1.478;2023-05-08T03:15:05;66096.19;;;13.54;100.00
44675;BME280;30388;52.038;-1.478;2023-05-08T03:17:34;66084.57;;;13.40;100.00
44675;BME280;30388;52.038;-1.478;2023-05-08T03:20:05;66011.72;;;12.48;100.00
44675;BME280;30388;52.038;-1.478;2023-05-08T03:22:35;66005.54;;;12.41;100.00
44675;BME280;30388;52.038;-1.478;2023-05-08T03:25:05;66019.06;;;12.58;100.00
44675;BME280;30388;52.038;-1.478;2023-05-08T03:27:36;65988.07;;;12.19;100.00
44675;BME280;30388;52.038;-1.478;2023-05-08T03:30:05;66032.89;;;12.98;100.00
44675;BME280;30388;52.038;-1.478;2023-05-08T03:32:34;66032.23;;;12.75;100.00
44675;BME280;30388;52.038;-1.478;2023-05-08T03:35:02;66050.86;;;12.75;100.00
44675;BME280;30388;52.038;-1.478;2023-05-08T03:37:31;66052.21;;;12.50;100.00
44675;BME280;30388;52.038;-1.478;2023-05-08T03:39:59;66080.30;;;13.35;100.00
44675;BME280;30388;52.038;-1.478;2023-05-08T03:42:27;66088.34;;;13.45;100.00
44675;BME280;30388;52.038;-1.478;2023-05-08T03:44:58;65996.98;;;12.30;100.00
44675;BME280;30388;52.038;-1.478;2023-05-08T03:47:27;66039.11;;;12.83;100.00
44675;BME280;30388;52.038;-1.478;2023-05-08T03:49:54;66015.07;;;12.53;100.00
44675;BME280;30388;52.038;-1.478;2023-05-08T03:52:22;66010.84;;;12.97;100.00
44675;BME280;30388;52.038;-1.478;2023-05-08T03:54:49;66077.50;;;13.32;100.00
44675;BME280;30388;52.038;-1.478;2023-05-08T03:57:17;66056.82;;;13.05;100.00
44675;BME280;30388;52.038;-1.478;2023-05-08T03:59:51;66037.34;;;12.81;100.00
44675;BME280;30388;52.038;-1.478;2023-05-08T04:02:28;66016.66;;;12.56;100.00
44675;BME280;30388;52.038;-1.478;2023-05-08T04:05:03;65957.96;;;12.03;100.00
44675;BME280;30388;52.038;-1.478;2023-05-08T04:07:36;66023.79;;;12.87;100.00
44675;BME280;30388;52.038;-1.478;2023-05-08T04:10:10;66080.18;;;13.12;100.00
44675;BME280;30388;52.038;-1.478;2023-05-08T04:12:44;66061.87;;;12.63;100.00
44675;BME280;30388;52.038;-1.478;2023-05-08T04:15:18;66019.17;;;12.58;100.00
44675;BME280;30388;52.038;-1.478;2023-05-08T04:17:49;66085.20;;;12.93;100.00
44675;BME280;30388;52.038;-1.478;2023-05-08T04:20:23;66078.80;;;13.11;100.00
44675;BME280;30388;52.038;-1.478;2023-05-08T04:22:53;66109.60;;;13.23;100.00
44675;BME280;30388;52.038;-1.478;2023-05-08T04:25:21;66104.36;;;13.43;100.00
44675;BME280;30388;52.038;-1.478;2023-05-08T04:27:49;66152.30;;;13.77;100.00
44675;BME280;30388;52.038;-1.478;2023-05-08T04:30:18;66113.07;;;13.77;100.00
44675;BME280;30388;52.038;-1.478;2023-05-08T04:32:45;66082.67;;;13.16;100.00
44675;BME280;30388;52.038;-1.478;2023-05-08T04:35:13;66091.64;;;13.00;100.00
44675;BME280;30388;52.038;-1.478;2023-05-08T04:37:41;66043.85;;;12.89;100.00
44675;BME280;30388;52.038;-1.478;2023-05-08T04:40:10;66105.66;;;13.17;100.00
44675;BME280;30388;52.038;-1.478;2023-05-08T04:42:38;66125.29;;;13.43;100.00
44675;BME280;30388;52.038;-1.478;2023-05-08T04:45:07;66089.23;;;13.24;100.00
44675;BME280;30388;52.038;-1.478;2023-05-08T04:47:34;66028.87;;;12.48;100.00
44675;BME280;30388;52.038;-1.478;2023-05-08T04:50:01;66160.18;;;13.87;100.00
44675;BME280;30388;52.038;-1.478;2023-05-08T04:52:30;66108.16;;;13.21;100.00
44675;BME280;30388;52.038;-1.478;2023-05-08T04:54:58;66133.57;;;13.53;100.00
44675;BME280;30388;52.038;-1.478;2023-05-08T04:57:26;66102.36;;;13.13;100.00
44675;BME280;30388;52.038;-1.478;2023-05-08T04:59:53;65996.64;;;12.29;100.00
44675;BME280;30388;52.038;-1.478;2023-05-08T05:02:21;66074.23;;;13.27;100.00
44675;BME280;30388;52.038;-1.478;2023-05-08T05:04:48;66068.60;;;12.98;100.00
44675;BME280;30388;52.038;-1.478;2023-05-08T05:07:16;66040.94;;;12.85;100.00
44675;BME280;30388;52.038;-1.478;2023-05-08T05:09:43;66032.90;;;12.75;100.00
44675;BME280;30388;52.038;-1.478;2023-05-08T05:12:11;66056.98;;;13.06;100.00
44675;BME280;30388;52.038;-1.478;2023-05-08T05:14:38;66061.59;;;13.34;100.00
44675;BME280;30388;52.038;-1.478;2023-05-08T05:17:05;66055.12;;;13.03;100.00
44675;BME280;30388;52.038;-1.478;2023-05-08T05:19:33;66070.91;;;13.23;100.00
44675;BME280;30388;52.038;-1.478;2023-05-08T05:22:00;66081.14;;;13.36;100.00
44675;BME280;30388;52.038;-1.478;2023-05-08T05:24:28;65991.50;;;12.24;100.00
44675;BME280;30388;52.038;-1.478;2023-05-08T05:26:56;65993.19;;;12.47;100.00
44675;BME280;30388;52.038;-1.478;2023-05-08T05:29:23;66025.64;;;12.88;100.00
44675;BME280;30388;52.038;-1.478;2023-05-08T05:31:50;66010.90;;;12.47;100.00
44675;BME280;30388;52.038;-1.478;2023-05-08T05:34:18;66054.32;;;13.02;100.00
44675;BME280;30388;52.038;-1.478;2023-05-08T05:36:45;66051.85;;;12.99;100.00
44675;BME280;30388;52.038;-1.478;2023-05-08T05:39:12;66112.47;;;13.76;100.00
44675;BME280;30388;52.038;-1.478;2023-05-08T05:41:40;66098.96;;;13.58;100.00
44675;BME280;30388;52.038;-1.478;2023-05-08T05:44:08;66041.52;;;12.86;100.00
44675;BME280;30388;52.038;-1.478;2023-05-08T05:46:35;66049.05;;;12.96;100.00
44675;BME280;30388;52.038;-1.478;2023-05-08T05:49:02;66079.10;;;13.33;100.00
44675;BME280;30388;52.038;-1.478;2023-05-08T05:51:30;66034.40;;;12.77;100.00
44675;BME280;30388;52.038;-1.478;2023-05-08T05:53:57;66045.92;;;12.92;100.00
44675;BME280;30388;52.038;-1.478;2023-05-08T05:56:24;66008.32;;;12.44;100.00
44675;BME280;30388;52.038;-1.478;2023-05-08T05:58:52;66037.09;;;12.80;100.00
44675;BME280;30388;52.038;-1.478;2023-05-08T06:01:20;66018.65;;;13.06;100.00
44675;BME280;30388;52.038;-1.478;2023-05-08T06:03:47;66023.78;;;12.86;100.00
44675;BME280;30388;52.038;-1.478;2023-05-08T06:06:14;66030.93;;;12.95;100.00
44675;BME280;30388;52.038;-1.478;2023-05-08T06:08:42;66054.38;;;13.02;100.00
44675;BME280;30388;52.038;-1.478;2023-05-08T06:11:09;66082.46;;;13.37;100.00
44675;BME280;30388;52.038;-1.478;2023-05-08T06:13:38;66050.67;;;12.98;100.00
44675;BME280;30388;52.038;-1.478;2023-05-08T06:16:07;66042.66;;;13.09;100.00
44675;BME280;30388;52.038;-1.478;2023-05-08T06:18:34;66033.12;;;12.75;100.00
44675;BME280;30388;52.038;-1.478;2023-05-08T06:21:01;66033.37;;;12.98;100.00
44675;BME280;30388;52.038;-1.478;2023-05-08T06:23:29;66085.16;;;13.41;100.00
44675;BME280;30388;52.038;-1.478;2023-05-08T06:25:56;66112.95;;;13.27;100.00
44675;BME280;30388;52.038;-1.478;2023-05-08T06:28:23;66095.00;;;13.53;100.00
44675;BME280;30388;52.038;-1.478;2023-05-08T06:30:52;66098.52;;;13.36;100.00
44675;BME280;30388;52.038;-1.478;2023-05-08T06:33:19;66100.75;;;13.60;100.00
44675;BME280;30388;52.038;-1.478;2023-05-08T06:35:47;66120.25;;;13.36;100.00
44675;BME280;30388;52.038;-1.478;2023-05-08T06:38:14;66134.23;;;13.55;100.00
44675;BME280;30388;52.038;-1.478;2023-05-08T06:40:43;66101.56;;;13.62;100.00
44675;BME280;30388;52.038;-1.478;2023-05-08T06:43:10;66093.28;;;13.51;100.00
44675;BME280;30388;52.038;-1.478;2023-05-08T06:45:39;66081.01;;;13.36;100.00
44675;BME280;30388;52.038;-1.478;2023-05-08T06:48:06;66059.06;;;13.08;100.00
44675;BME280;30388;52.038;-1.478;2023-05-08T06:50:36;66042.76;;;12.88;100.00
44675;BME280;30388;52.038;-1.478;2023-05-08T06:53:04;66065.07;;;13.16;100.00
44675;BME280;30388;52.038;-1.478;2023-05-08T06:55:31;66009.75;;;12.46;100.00
44675;BME280;30388;52.038;-1.478;2023-05-08T06:57:58;66063.14;;;13.13;100.00
44675;BME280;30388;52.038;-1.478;2023-05-08T07:00:27;66033.24;;;12.75;100.00
44675;BME280;30388;52.038;-1.478;2023-05-08T07:02:54;66050.08;;;12.97;100.00
44675;BME280;30388;52.038;-1.478;2023-05-08T07:05:21;66072.90;;;13.26;100.00
44675;BME280;30388;52.038;-1.478;2023-05-08T07:07:48;66056.69;;;13.05;100.00
44675;BME280;30388;52.038;-1.478;2023-05-08T07:10:16;66053.06;;;13.00;100.00
44675;BME280;30388;52.038;-1.478;2023-05-08T07:12:43;66094.60;;;13.52;100.00
44675;BME280;30388;52.038;-1.478;2023-05-08T07:15:11;66075.24;;;13.29;100.00
44675;BME280;30388;52.038;-1.478;2023-05-08T07:17:39;66020.04;;;12.59;100.00
44675;BME280;30388;52.038;-1.478;2023-05-08T07:20:07;65937.51;;;11.77;100.00
44675;BME280;30388;52.038;-1.478;2023-05-08T07:22:35;66050.96;;;13.20;100.00
44675;BME280;30388;52.038;-1.478;2023-05-08T07:25:03;66085.28;;;13.41;100.00
44675;BME280;30388;52.038;-1.478;2023-05-08T07:27:31;66075.57;;;13.29;100.00
44675;BME280;30388;52.038;-1.478;2023-05-08T07:29:58;65993.17;;;12.25;100.00
44675;BME280;30388;52.038;-1.478;2023-05-08T07:32:27;66029.88;;;12.71;100.00
44675;BME280;30388;52.038;-1.478;2023-05-08T07:34:54;66093.27;;;13.51;100.00
44675;BME280;30388;52.038;-1.478;2023-05-08T07:37:21;66028.39;;;12.69;100.00
44675;BME280;30388;52.038;-1.478;2023-05-08T07:39:50;66116.85;;;13.81;100.00
44675;BME280;30388;52.038;-1.478;2023-05-08T07:42:17;66052.14;;;12.99;100.00
44675;BME280;30388;52.038;-1.478;2023-05-08T07:44:45;66138.96;;;14.09;100.00
44675;BME280;30388;52.038;-1.478;2023-05-08T07:47:13;66080.72;;;13.13;100.00
44675;BME280;30388;52.038;-1.478;2023-05-08T07:49:40;66078.97;;;13.11;100.00
44675;BME280;30388;52.038;-1.478;2023-05-08T07:52:07;66138.94;;;13.60;100.00
44675;BME280;30388;52.038;-1.478;2023-05-08T07:54:36;66069.73;;;13.22;100.00
44675;BME280;30388;52.038;-1.478;2023-05-08T07:57:03;66079.37;;;12.85;100.00
44675;BME280;30388;52.038;-1.478;2023-05-08T07:59:30;66124.40;;;13.43;100.00
44675;BME280;30388;52.038;-1.478;2023-05-08T08:01:57;66107.02;;;13.46;100.00
44675;BME280;30388;52.038;-1.478;2023-05-08T08:04:26;66057.23;;;12.83;100.00
44675;BME280;30388;52.038;-1.478;2023-05-08T08:06:53;66127.59;;;13.45;100.00
44675;BME280;30388;52.038;-1.478;2023-05-08T08:09:20;66173.38;;;14.03;100.00
44675;BME280;30388;52.038;-1.478;2023-05-08T08:11:49;66113.72;;;13.55;100.00
44675;BME280;30388;52.038;-1.478;2023-05-08T08:14:16;66106.65;;;13.19;100.00
44675;BME280;30388;52.038;-1.478;2023-05-08T08:16:43;66056.26;;;12.82;100.00
44675;BME280;30388;52.038;-1.478;2023-05-08T08:19:10;66079.29;;;13.11;100.00
44675;BME280;30388;52.038;-1.478;2023-05-08T08:21:41;66082.09;;;13.37;100.00
44675;BME280;30388;52.038;-1.478;2023-05-08T08:24:08;66027.88;;;12.69;100.00
44675;BME280;30388;52.038;-1.478;2023-05-08T08:26:37;66078.01;;;13.32;100.00
44675;BME280;30388;52.038;-1.478;2023-05-08T08:29:04;66056.49;;;13.05;100.00
44675;BME280;30388;52.038;-1.478;2023-05-08T08:31:31;66106.44;;;13.19;100.00
44675;BME280;30388;52.038;-1.478;2023-05-08T08:34:00;66113.54;;;13.55;100.00
44675;BME280;30388;52.038;-1.478;2023-05-08T08:36:27;66049.09;;;12.95;100.00
44675;BME280;30388;52.038;-1.478;2023-05-08T08:38:54;66081.61;;;13.37;100.00
44675;BME280;30388;52.038;-1.478;2023-05-08T08:41:22;66084.19;;;12.92;100.00
44675;BME280;30388;52.038;-1.478;2023-05-08T08:43:50;66168.36;;;13.75;100.00
44675;BME280;30388;52.038;-1.478;2023-05-08T08:46:19;66067.06;;;13.18;100.00
44675;BME280;30388;52.038;-1.478;2023-05-08T08:48:50;66024.34;;;12.65;100.00
44675;BME280;30388;52.038;-1.478;2023-05-08T08:51:24;66075.86;;;12.81;100.00
44675;BME280;30388;52.038;-1.478;2023-05-08T08:54:01;66049.01;;;12.96;100.00
44675;BME280;30388;52.038;-1.478;2023-05-08T08:56:31;66099.15;;;13.10;100.00
44675;BME280;30388;52.038;-1.478;2023-05-08T08:58:59;66093.35;;;13.03;100.00
44675;BME280;30388;52.038;-1.478;2023-05-08T09:01:27;66043.03;;;12.66;100.00
44675;BME280;30388;52.038;-1.478;2023-05-08T09:03:57;66041.69;;;12.87;100.00
44675;BME280;30388;52.038;-1.478;2023-05-08T09:06:24;66008.10;;;12.44;100.00
44675;BME280;30388;52.038;-1.478;2023-05-08T09:08:55;66123.88;;;13.68;100.00
44675;BME280;30388;52.038;-1.478;2023-05-08T09:11:22;66176.89;;;14.08;100.00
44675;BME280;30388;52.038;-1.478;2023-05-08T09:13:49;66110.94;;;13.74;100.00
44675;BME280;30388;52.038;-1.478;2023-05-08T09:16:17;66129.39;;;13.48;100.00
44675;BME280;30388;52.038;-1.478;2023-05-08T09:18:44;66144.98;;;13.67;100.00
44675;BME280;30388;52.038;-1.478;2023-05-08T09:21:11;66078.48;;;13.11;100.00
44675;BME280;30388;52.038;-1.478;2023-05-08T09:23:54;66074.47;;;13.05;100.00
44675;BME280;30388;52.038;-1.478;2023-05-08T09:26:29;66121.91;;;13.39;100.00
44675;BME280;30388;52.038;-1.478;2023-05-08T09:29:16;66143.75;;;13.66;100.00
44675;BME280;30388;52.038;-1.478;2023-05-08T09:31:44;66118.17;;;13.34;100.00
44675;BME280;30388;52.038;-1.478;2023-05-08T09:34:22;66115.60;;;13.31;100.00
44675;BME280;30388;52.038;-1.478;2023-05-08T09:36:51;66089.47;;;12.98;100.00
44675;BME280;30388;52.038;-1.478;2023-05-08T09:39:22;66087.93;;;13.22;100.00
44675;BME280;30388;52.038;-1.478;2023-05-08T09:41:58;66151.13;;;13.75;100.00
44675;BME280;30388;52.038;-1.478;2023-05-08T09:44:26;66124.97;;;13.42;100.00
44675;BME280;30388;52.038;-1.478;2023-05-08T09:47:09;66027.63;;;12.68;100.00
44675;BME280;30388;52.038;-1.478;2023-05-08T09:49:36;66108.44;;;13.22;100.00
44675;BME280;30388;52.038;-1.478;2023-05-08T09:52:04;66186.82;;;13.99;100.00
44675;BME280;30388;52.038;-1.478;2023-05-08T09:54:32;66228.77;;;14.51;100.00
44675;BME280;30388;52.038;-1.478;2023-05-08T09:57:01;66198.42;;;14.35;100.00
44675;BME280;30388;52.038;-1.478;2023-05-08T09:59:37;66171.57;;;14.01;100.00
44675;BME280;30388;52.038;-1.478;2023-05-08T10:02:10;66217.36;;;14.59;100.00
44675;BME280;30388;52.038;-1.478;2023-05-08T10:04:38;66268.81;;;14.79;100.00
44675;BME280;30388;52.038;-1.478;2023-05-08T10:07:06;66243.32;;;14.47;100.00
44675;BME280;30388;52.038;-1.478;2023-05-08T10:09:33;66171.47;;;14.01;100.00
44675;BME280;30388;52.038;-1.478;2023-05-08T10:12:00;66195.03;;;13.86;100.00
44675;BME280;30388;52.038;-1.478;2023-05-08T10:14:27;66175.77;;;14.07;100.00
44675;BME280;30388;52.038;-1.478;2023-05-08T10:16:55;66216.91;;;14.58;100.00
44675;BME280;30388;52.038;-1.478;2023-05-08T10:19:24;66308.68;;;15.29;100.00
44675;BME280;30388;52.038;-1.478;2023-05-08T10:21:53;66259.32;;;14.67;100.00
44675;BME280;30388;52.038;-1.478;2023-05-08T10:24:26;66175.16;;;13.83;100.00
44675;BME280;30388;52.038;-1.478;2023-05-08T10:27:03;66135.52;;;13.56;100.00
44675;BME280;30388;52.038;-1.478;2023-05-08T10:29:33;66159.59;;;13.85;100.00
44675;BME280;30388;52.038;-1.478;2023-05-08T10:32:09;66148.22;;;13.98;100.00
44675;BME280;30388;52.038;-1.478;2023-05-08T10:34:39;66128.07;;;13.46;100.00
44675;BME280;30388;52.038;-1.478;2023-05-08T10:37:08;66126.37;;;13.44;100.00
44675;BME280;30388;52.038;-1.478;2023-05-08T10:39:36;66123.45;;;13.89;100.00
44675;BME280;30388;52.038;-1.478;2023-05-08T10:42:06;66122.40;;;13.65;100.00
44675;BME280;30388;52.038;-1.478;2023-05-08T10:44:33;66186.77;;;14.20;100.00
44675;BME280;30388;52.038;-1.478;2023-05-08T10:47:07;66168.07;;;13.74;100.00
44675;BME280;30388;52.038;-1.478;2023-05-08T10:49:42;66206.56;;;14.45;100.00
44675;BME280;30388;52.038;-1.478;2023-05-08T10:52:16;66258.28;;;14.66;100.00
44675;BME280;30388;52.038;-1.478;2023-05-08T10:55:05;66240.92;;;14.16;100.00
44675;BME280;30388;52.038;-1.478;2023-05-08T10:57:35;66298.74;;;15.16;100.00
44675;BME280;30388;52.038;-1.478;2023-05-08T11:00:02;66263.24;;;14.72;100.00
44675;BME280;30388;52.038;-1.478;2023-05-08T11:02:30;66225.09;;;14.69;100.00
44675;BME280;30388;52.038;-1.478;2023-05-08T11:05:13;66241.31;;;14.67;100.00
44675;BME280;30388;52.038;-1.478;2023-05-08T11:07:56;66203.21;;;14.41;100.00
44675;BME280;30388;52.038;-1.478;2023-05-08T11:10:29;66237.37;;;14.39;100.00
44675;BME280;30388;52.038;-1.478;2023-05-08T11:12:57;66246.25;;;14.51;100.00
44675;BME280;30388;52.038;-1.478;2023-05-08T11:15:49;66208.64;;;14.47;100.00
44675;BME280;30388;52.038;-1.478;2023-05-08T11:18:16;66150.16;;;13.74;100.00
44675;BME280;30388;52.038;-1.478;2023-05-08T11:20:55;66098.72;;;13.37;100.00
44675;BME280;30388;52.038;-1.478;2023-05-08T11:23:24;66094.11;;;13.30;100.00
44675;BME280;30388;52.038;-1.478;2023-05-08T11:25:59;66163.55;;;13.91;100.00
44675;BME280;30388;52.038;-1.478;2023-05-08T11:28:27;66238.05;;;14.85;100.00
44675;BME280;30388;52.038;-1.478;2023-05-08T11:31:02;66138.20;;;13.59;100.00
44675;BME280;30388;52.038;-1.478;2023-05-08T11:33:31;66200.46;;;14.37;100.00
44675;BME280;30388;52.038;-1.478;2023-05-08T11:36:12;66281.47;;;14.95;100.00
44675;BME280;30388;52.038;-1.478;2023-05-08T11:38:40;66267.48;;;14.78;100.00
44675;BME280;30388;52.038;-1.478;2023-05-08T11:41:08;66271.27;;;15.27;100.00
44675;BME280;30388;52.038;-1.478;2023-05-08T11:44:16;66288.42;;;15.03;100.00
44675;BME280;30388;52.038;-1.478;2023-05-08T11:46:49;66311.52;;;15.33;100.00
44675;BME280;30388;52.038;-1.478;2023-05-08T11:49:17;66324.36;;;15.49;100.00
44675;BME280;30388;52.038;-1.478;2023-05-08T11:51:47;66296.87;;;15.14;100.00
44675;BME280;30388;52.038;-1.478;2023-05-08T11:54:17;66384.69;;;15.76;100.00
44675;BME280;30388;52.038;-1.478;2023-05-08T11:56:46;66338.09;;;15.39;100.00
44675;BME280;30388;52.038;-1.478;2023-05-08T11:59:13;66382.46;;;15.73;100.00
44675;BME280;30388;52.038;-1.478;2023-05-08T12:01:41;66360.84;;;15.47;100.00
44675;BME280;30388;52.038;-1.478;2023-05-08T12:04:10;66396.35;;;15.91;100.00
44675;BME280;30388;52.038;-1.478;2023-05-08T12:06:39;66390.45;;;15.84;100.00
44675;BME280;30388;52.038;-1.478;2023-05-08T12:09:10;66387.68;;;15.79;100.00
44675;BME280;30388;52.038;-1.478;2023-05-08T12:11:38;66354.43;;;15.38;100.00
44675;BME280;30388;52.038;-1.478;2023-05-08T12:14:05;66300.22;;;15.18;100.00
44675;BME280;30388;52.038;-1.478;2023-05-08T12:16:35;66379.57;;;15.70;100.00
44675;BME280;30388;52.038;-1.478;2023-05-08T12:19:02;66291.97;;;14.59;100.00
44675;BME280;30388;52.038;-1.478;2023-05-08T12:21:29;66367.41;;;15.54;100.00
44675;BME280;30388;52.038;-1.478;2023-05-08T12:23:57;66311.45;;;15.32;100.00
44675;BME280;30388;52.038;-1.478;2023-05-08T12:26:24;66254.57;;;14.61;100.00
44675;BME280;30388;52.038;-1.478;2023-05-08T12:28:55;66310.11;;;15.31;100.00
44675;BME280;30388;52.038;-1.478;2023-05-08T12:31:23;66325.10;;;15.23;100.00
44675;BME280;30388;52.038;-1.478;2023-05-08T12:33:49;66280.76;;;14.94;100.00
44675;BME280;30388;52.038;-1.478;2023-05-08T12:36:19;66289.67;;;15.05;100.00
44675;BME280;30388;52.038;-1.478;2023-05-08T12:38:46;66332.83;;;15.60;100.00
44675;BME280;30388;52.038;-1.478;2023-05-08T12:41:13;66349.07;;;15.31;100.00
44675;BME280;30388;52.038;-1.478;2023-05-08T12:43:40;66263.10;;;14.71;100.00
44675;BME280;30388;52.038;-1.478;2023-05-08T12:46:10;66326.31;;;15.52;100.00
44675;BME280;30388;52.038;-1.478;2023-05-08T12:48:37;66310.67;;;14.82;100.00
44675;BME280;30388;52.038;-1.478;2023-05-08T12:51:05;66295.95;;;15.35;100.00
44675;BME280;30388;52.038;-1.478;2023-05-08T12:53:33;66273.41;;;15.07;100.00